createdAt,value
2018-12-10T00:01:38.061Z,7.50
2018-12-10T00:04:08.412Z,7.40
2018-12-10T00:06:38.728Z,7.40
2018-12-10T00:09:06.886Z,7.40
2018-12-10T00:11:37.099Z,7.20
2018-12-10T00:14:05.406Z,7.00
2018-12-10T00:16:33.867Z,6.90
2018-12-10T00:19:02.143Z,6.90
2018-12-10T00:21:30.211Z,6.80
2018-12-10T00:23:58.392Z,6.60
2018-12-10T00:26:26.652Z,6.60
2018-12-10T00:28:55.106Z,6.50
2018-12-10T00:31:23.317Z,6.40
2018-12-10T00:33:51.969Z,6.40
2018-12-10T00:36:20.103Z,6.40
2018-12-10T00:38:48.335Z,6.30
2018-12-10T00:41:16.736Z,6.30
2018-12-10T00:43:45.050Z,6.40
2018-12-10T00:46:13.307Z,6.40
2018-12-10T00:48:41.550Z,6.30
2018-12-10T00:51:09.852Z,6.30
2018-12-10T00:53:38.111Z,6.30
2018-12-10T00:56:06.278Z,6.30
2018-12-10T00:58:35.256Z,6.20
2018-12-10T01:01:04.121Z,6.20
2018-12-10T01:03:32.251Z,6.10
2018-12-10T01:06:00.607Z,6.10
2018-12-10T01:08:28.692Z,6.10
2018-12-10T01:10:56.786Z,6.20
2018-12-10T01:13:24.964Z,6.10
2018-12-10T01:15:54.127Z,6.20
2018-12-10T01:18:22.298Z,6.10
2018-12-10T01:20:50.597Z,6.10
2018-12-10T01:23:18.864Z,6.10
2018-12-10T01:25:47.287Z,6.10
2018-12-10T01:28:15.622Z,6.20
2018-12-10T01:30:44.024Z,6.20
2018-12-10T01:33:12.283Z,6.20
2018-12-10T01:35:40.460Z,6.20
2018-12-10T01:38:08.841Z,6.20
2018-12-10T01:40:37.116Z,6.30
2018-12-10T01:43:05.184Z,6.30
2018-12-10T01:45:33.567Z,6.30
2018-12-10T01:48:01.851Z,6.30
2018-12-10T01:50:30.860Z,6.40
2018-12-10T01:52:59.528Z,6.40
2018-12-10T01:55:27.890Z,6.40
2018-12-10T01:57:56.088Z,6.50
2018-12-10T02:00:24.409Z,6.50
2018-12-10T02:02:52.730Z,6.50
2018-12-10T02:05:20.933Z,6.50
2018-12-10T02:07:49.300Z,6.50
2018-12-10T02:10:17.484Z,6.50
2018-12-10T02:12:46.756Z,6.60
2018-12-10T02:15:15.973Z,6.60
2018-12-10T02:17:44.236Z,6.60
2018-12-10T02:20:12.745Z,6.60
2018-12-10T02:22:41.018Z,6.60
2018-12-10T02:25:09.285Z,6.60
2018-12-10T02:27:37.525Z,6.60
2018-12-10T02:30:05.927Z,6.60
2018-12-10T02:32:34.799Z,6.60
2018-12-10T02:35:03.556Z,6.70
2018-12-10T02:37:31.676Z,6.60
2018-12-10T02:39:59.950Z,6.60
2018-12-10T02:42:28.257Z,6.60
2018-12-10T02:44:56.615Z,6.60
2018-12-10T02:47:30.363Z,6.60
2018-12-10T02:50:00.743Z,6.50
2018-12-10T02:52:29.035Z,6.50
2018-12-10T02:54:57.279Z,6.50
2018-12-10T02:57:25.768Z,6.50
2018-12-10T02:59:54.120Z,6.50
2018-12-10T03:02:22.437Z,6.50
2018-12-10T03:04:50.823Z,6.50
2018-12-10T03:07:19.185Z,6.60
2018-12-10T03:09:47.586Z,6.60
2018-12-10T03:12:15.836Z,6.50
2018-12-10T03:14:44.177Z,6.50
2018-12-10T03:17:13.509Z,6.50
2018-12-10T03:19:41.878Z,6.50
2018-12-10T03:22:10.297Z,6.40
2018-12-10T03:24:38.684Z,6.50
2018-12-10T03:27:06.957Z,6.40
2018-12-10T03:29:35.214Z,6.40
2018-12-10T03:32:03.511Z,6.40
2018-12-10T03:34:31.684Z,6.40
2018-12-10T03:37:00.075Z,6.40
2018-12-10T03:39:28.332Z,6.40
2018-12-10T03:41:56.599Z,6.30
2018-12-10T03:44:24.771Z,6.30
2018-12-10T03:46:53.572Z,6.30
2018-12-10T03:49:21.952Z,6.20
2018-12-10T03:51:50.303Z,6.20
2018-12-10T03:54:18.615Z,6.20
2018-12-10T03:56:47.013Z,6.20
2018-12-10T03:59:15.945Z,6.20
2018-12-10T04:01:44.340Z,6.20
2018-12-10T04:04:12.732Z,6.20
2018-12-10T04:06:41.105Z,6.20
2018-12-10T04:09:09.677Z,6.20
2018-12-10T04:11:38.240Z,6.20
2018-12-10T04:14:06.348Z,6.20
2018-12-10T04:16:34.606Z,6.20
2018-12-10T04:19:03.089Z,6.20
2018-12-10T04:21:31.627Z,6.10
2018-12-10T04:24:00.881Z,6.10
2018-12-10T04:26:29.284Z,6.10
2018-12-10T04:28:57.522Z,6.10
2018-12-10T04:31:25.617Z,6.10
2018-12-10T04:33:54.228Z,6.10
2018-12-10T04:36:22.364Z,6.10
2018-12-10T04:38:50.572Z,6.10
2018-12-10T04:41:18.818Z,6.10
2018-12-10T04:43:47.120Z,6.10
2018-12-10T04:46:15.581Z,6.10
2018-12-10T04:48:43.817Z,6.10
2018-12-10T04:51:11.969Z,6.10
2018-12-10T04:53:51.580Z,6.10
2018-12-10T04:56:24.537Z,6.10
2018-12-10T04:58:52.733Z,6.10
2018-12-10T05:01:21.373Z,6.10
2018-12-10T05:03:49.642Z,6.00
2018-12-10T05:06:17.989Z,6.00
2018-12-10T05:08:46.228Z,6.00
2018-12-10T05:11:15.604Z,6.00
2018-12-10T05:13:43.737Z,6.00
2018-12-10T05:16:12.029Z,6.00
2018-12-10T05:18:40.838Z,6.00
2018-12-10T05:21:09.478Z,6.00
2018-12-10T05:23:37.765Z,6.00
2018-12-10T05:26:05.997Z,6.00
2018-12-10T05:28:34.214Z,6.00
2018-12-10T05:31:02.510Z,6.00
2018-12-10T05:33:31.217Z,6.00
2018-12-10T05:35:59.651Z,6.00
2018-12-10T05:38:28.045Z,6.00
2018-12-10T05:40:56.382Z,6.00
2018-12-10T05:43:24.759Z,6.00
2018-12-10T05:45:53.115Z,6.00
2018-12-10T05:48:21.429Z,6.00
2018-12-10T05:50:49.818Z,6.00
2018-12-10T05:53:18.132Z,6.00
2018-12-10T05:55:46.296Z,6.00
2018-12-10T05:58:14.560Z,6.00
2018-12-10T06:00:42.971Z,5.90
2018-12-10T06:03:12.175Z,5.90
2018-12-10T06:05:40.309Z,5.90
2018-12-10T06:08:08.613Z,5.90
2018-12-10T06:10:36.860Z,5.90
2018-12-10T06:13:05.039Z,5.80
2018-12-10T06:15:33.430Z,5.90
2018-12-10T06:18:01.679Z,5.80
2018-12-10T06:20:29.878Z,5.80
2018-12-10T06:22:58.258Z,5.80
2018-12-10T06:25:26.552Z,5.80
2018-12-10T06:27:55.135Z,5.80
2018-12-10T06:30:23.387Z,5.70
2018-12-10T06:32:51.771Z,5.80
2018-12-10T06:35:20.237Z,5.70
2018-12-10T06:37:48.498Z,5.70
2018-12-10T06:40:16.800Z,5.70
2018-12-10T06:42:44.979Z,5.70
2018-12-10T06:45:13.376Z,5.70
2018-12-10T06:47:41.638Z,5.70
2018-12-10T06:50:10.255Z,5.60
2018-12-10T06:52:38.698Z,5.60
2018-12-10T06:55:07.378Z,5.60
2018-12-10T06:57:35.765Z,5.60
2018-12-10T07:00:04.647Z,5.60
2018-12-10T07:02:33.105Z,5.60
2018-12-10T07:05:01.680Z,5.60
2018-12-10T07:07:30.110Z,5.50
2018-12-10T07:09:58.412Z,5.50
2018-12-10T07:12:26.742Z,5.50
2018-12-10T07:14:55.036Z,5.60
2018-12-10T07:17:23.518Z,5.60
2018-12-10T07:19:52.072Z,5.50
2018-12-10T07:25:20.507Z,5.60
2018-12-10T07:27:49.904Z,5.60
2018-12-10T07:30:18.283Z,5.50
2018-12-10T07:32:46.670Z,5.60
2018-12-10T07:35:15.110Z,5.60
2018-12-10T07:37:43.348Z,5.50
2018-12-10T07:40:11.806Z,5.60
2018-12-10T07:42:39.989Z,5.50
2018-12-10T07:45:08.482Z,5.50
2018-12-10T07:47:36.724Z,5.60
2018-12-10T07:50:05.616Z,5.60
2018-12-10T07:52:34.114Z,5.60
2018-12-10T07:55:02.457Z,5.60
2018-12-10T07:57:30.878Z,5.60
2018-12-10T07:59:59.340Z,5.60
2018-12-10T08:02:27.733Z,5.60
2018-12-10T08:04:56.227Z,5.70
2018-12-10T08:07:24.382Z,5.70
2018-12-10T08:09:52.674Z,5.70
2018-12-10T08:12:20.956Z,5.70
2018-12-10T08:14:49.129Z,5.70
2018-12-10T08:17:17.507Z,5.80
2018-12-10T08:19:45.997Z,5.90
2018-12-10T08:22:14.522Z,5.90
2018-12-10T08:24:42.848Z,6.10
2018-12-10T08:27:11.170Z,6.20
2018-12-10T08:29:39.492Z,6.20
2018-12-10T08:32:07.908Z,6.20
2018-12-10T08:34:41.336Z,6.30
2018-12-10T08:37:06.666Z,6.30
2018-12-10T08:39:35.189Z,6.30
2018-12-10T08:42:03.529Z,6.30
2018-12-10T08:44:32.055Z,6.20
2018-12-10T08:47:00.184Z,6.20
2018-12-10T08:49:28.937Z,6.20
2018-12-10T08:51:57.255Z,6.30
2018-12-10T08:54:25.517Z,6.30
2018-12-10T08:56:53.869Z,6.30
2018-12-10T08:59:22.350Z,6.30
2018-12-10T09:01:50.777Z,6.40
2018-12-10T09:04:20.180Z,6.40
2018-12-10T09:06:48.707Z,6.40
2018-12-10T09:09:17.604Z,6.40
2018-12-10T09:11:45.915Z,6.40
2018-12-10T09:14:14.196Z,6.50
2018-12-10T09:16:42.771Z,6.60
2018-12-10T09:19:11.226Z,6.70
2018-12-10T09:21:39.529Z,6.80
2018-12-10T09:24:08.311Z,6.90
2018-12-10T09:26:36.817Z,6.90
2018-12-10T09:29:05.235Z,7.00
2018-12-10T09:31:33.553Z,7.10
2018-12-10T09:34:02.054Z,7.10
2018-12-10T09:36:30.496Z,7.30
2018-12-10T09:38:58.833Z,7.40
2018-12-10T09:41:27.075Z,7.60
2018-12-10T09:43:55.361Z,7.70
2018-12-10T09:46:27.484Z,7.80
2018-12-10T09:48:54.048Z,7.80
2018-12-10T09:51:22.160Z,7.80
2018-12-10T09:53:50.684Z,7.80
2018-12-10T09:56:18.904Z,7.80
2018-12-10T09:58:47.475Z,7.80
2018-12-10T10:01:15.964Z,7.80
2018-12-10T10:03:44.335Z,7.70
2018-12-10T10:06:12.603Z,7.70
2018-12-10T10:08:41.199Z,7.60
2018-12-10T10:11:09.377Z,7.50
2018-12-10T10:13:37.817Z,7.50
2018-12-10T10:16:06.122Z,7.50
2018-12-10T10:18:34.715Z,7.40
2018-12-10T10:21:03.206Z,7.40
2018-12-10T10:23:31.381Z,7.30
2018-12-10T10:25:59.626Z,7.20
2018-12-10T10:28:27.742Z,7.20
2018-12-10T10:30:56.082Z,7.10
2018-12-10T10:33:32.170Z,7.10
2018-12-10T10:35:54.721Z,7.10
2018-12-10T10:38:22.971Z,7.10
2018-12-10T10:40:51.788Z,7.10
2018-12-10T10:43:20.517Z,7.10
2018-12-10T10:45:48.864Z,7.10
2018-12-10T10:48:17.297Z,7.00
2018-12-10T10:50:45.701Z,7.00
2018-12-10T10:53:14.171Z,7.00
2018-12-10T10:55:42.657Z,7.10
2018-12-10T10:58:16.780Z,7.00
2018-12-10T11:00:53.406Z,7.10
2018-12-10T11:03:27.324Z,7.20
2018-12-10T11:05:56.833Z,7.40
2018-12-10T11:08:25.137Z,7.50
2018-12-10T11:10:53.505Z,7.70
2018-12-10T11:13:21.896Z,7.70
2018-12-10T11:15:50.101Z,7.80
2018-12-10T11:18:18.743Z,7.70
2018-12-10T11:20:47.409Z,7.70
2018-12-10T11:23:15.842Z,7.70
2018-12-10T11:25:44.099Z,7.70
2018-12-10T11:28:12.457Z,7.70
2018-12-10T11:30:40.763Z,7.70
2018-12-10T11:33:09.221Z,7.70
2018-12-10T11:35:37.498Z,7.70
2018-12-10T11:38:05.896Z,7.70
2018-12-10T11:40:34.168Z,7.70
2018-12-10T11:43:02.336Z,7.70
2018-12-10T11:45:31.019Z,7.70
2018-12-10T11:47:59.303Z,7.70
2018-12-10T11:50:27.555Z,7.60
2018-12-10T11:52:55.845Z,7.60
2018-12-10T11:55:24.181Z,7.50
2018-12-10T11:57:52.722Z,7.60
2018-12-10T12:00:21.142Z,7.60
2018-12-10T12:02:49.385Z,7.60
2018-12-10T12:05:17.710Z,7.60
2018-12-10T12:07:45.965Z,7.60
2018-12-10T12:10:14.280Z,7.60
2018-12-10T12:12:43.510Z,7.70
2018-12-10T12:15:11.698Z,7.80
2018-12-10T12:17:40.156Z,7.80
2018-12-10T12:20:09.525Z,7.90
2018-12-10T12:22:38.172Z,7.90
2018-12-10T12:25:06.819Z,7.90
2018-12-10T12:27:52.123Z,7.90
2018-12-10T12:30:20.744Z,7.80
2018-12-10T12:32:48.944Z,7.90
2018-12-10T12:35:17.356Z,7.80
2018-12-10T12:37:45.644Z,7.90
2018-12-10T12:40:14.037Z,7.90
2018-12-10T12:42:42.480Z,7.90
2018-12-10T12:45:11.127Z,7.90
2018-12-10T12:47:40.376Z,7.80
2018-12-10T12:50:08.963Z,7.80
2018-12-10T12:52:37.428Z,7.80
2018-12-10T12:55:06.124Z,7.80
2018-12-10T12:57:34.613Z,7.80
2018-12-10T13:00:03.349Z,7.90
2018-12-10T13:02:32.089Z,7.90
2018-12-10T13:05:00.368Z,7.80
2018-12-10T13:07:28.933Z,7.80
2018-12-10T13:09:57.375Z,7.80
2018-12-10T13:12:25.600Z,7.70
2018-12-10T13:14:54.093Z,7.80
2018-12-10T13:17:22.658Z,8.00
2018-12-10T13:19:50.946Z,8.10
2018-12-10T13:22:19.126Z,8.20
2018-12-10T13:24:47.375Z,8.30
2018-12-10T13:27:15.850Z,8.40
2018-12-10T13:29:44.369Z,8.40
2018-12-10T13:32:12.729Z,8.50
2018-12-10T13:34:40.908Z,8.40
2018-12-10T13:37:09.133Z,8.50
2018-12-10T13:39:37.565Z,8.50
2018-12-10T13:42:06.033Z,8.40
2018-12-10T13:44:34.513Z,8.30
2018-12-10T13:47:02.855Z,8.30
2018-12-10T13:49:31.601Z,8.20
2018-12-10T13:52:09.004Z,8.10
2018-12-10T13:54:35.486Z,8.10
2018-12-10T13:57:04.596Z,8.00
2018-12-10T13:59:33.687Z,8.00
2018-12-10T14:02:01.995Z,8.00
2018-12-10T14:04:37.881Z,7.90
2018-12-10T14:07:06.147Z,7.80
2018-12-10T14:09:34.697Z,7.80
2018-12-10T14:12:03.178Z,7.70
2018-12-10T14:14:31.516Z,7.60
2018-12-10T14:17:00.186Z,7.50
2018-12-10T14:19:29.399Z,7.50
2018-12-10T14:21:58.279Z,7.50
2018-12-10T14:24:26.639Z,7.50
2018-12-10T14:26:54.876Z,7.50
2018-12-10T14:29:23.435Z,7.50
2018-12-10T14:31:51.746Z,7.50
2018-12-10T14:34:26.552Z,7.50
2018-12-10T14:36:55.037Z,7.50
2018-12-10T14:39:23.668Z,7.40
2018-12-10T14:41:52.028Z,7.40
2018-12-10T14:44:20.300Z,7.50
2018-12-10T14:46:48.910Z,7.40
2018-12-10T14:49:17.263Z,7.40
2018-12-10T14:51:45.876Z,7.40
2018-12-10T14:54:14.112Z,7.40
2018-12-10T14:56:42.551Z,7.40
2018-12-10T14:59:10.785Z,7.40
2018-12-10T15:01:39.668Z,7.40
2018-12-10T15:04:08.060Z,7.40
2018-12-10T15:06:36.344Z,7.30
2018-12-10T15:09:06.352Z,7.30
2018-12-10T15:11:35.865Z,7.20
2018-12-10T15:14:04.213Z,7.20
2018-12-10T15:16:32.766Z,7.10
2018-12-10T15:19:01.223Z,7.10
2018-12-10T15:21:29.568Z,7.10
2018-12-10T15:23:57.961Z,7.00
2018-12-10T15:26:26.325Z,7.00
2018-12-10T15:28:54.606Z,7.00
2018-12-10T15:31:23.188Z,7.00
2018-12-10T15:33:51.538Z,7.00
2018-12-10T15:36:20.058Z,6.90
2018-12-10T15:38:48.956Z,6.90
2018-12-10T15:41:17.344Z,6.90
2018-12-10T15:43:45.684Z,6.80
2018-12-10T15:46:14.165Z,6.80
2018-12-10T15:48:42.663Z,6.80
2018-12-10T15:51:11.052Z,6.80
2018-12-10T15:53:39.775Z,6.80
2018-12-10T15:56:08.449Z,6.70
2018-12-10T15:58:36.805Z,6.70
2018-12-10T16:01:05.207Z,6.60
2018-12-10T16:03:33.568Z,6.50
2018-12-10T16:06:02.008Z,6.50
2018-12-10T16:08:30.468Z,6.40
2018-12-10T16:10:58.796Z,6.30
2018-12-10T16:13:27.321Z,6.30
2018-12-10T16:15:55.587Z,6.30
2018-12-10T16:18:23.805Z,6.20
2018-12-10T16:20:52.201Z,6.20
2018-12-10T16:23:20.390Z,6.20
2018-12-10T16:25:49.153Z,6.10
2018-12-10T16:28:17.784Z,6.10
2018-12-10T16:30:46.408Z,6.10
2018-12-10T16:33:14.944Z,6.10
2018-12-10T16:35:43.568Z,6.10
2018-12-10T16:38:11.873Z,6.10
2018-12-10T16:40:40.278Z,6.20
2018-12-10T16:43:08.755Z,6.20
2018-12-10T16:45:37.440Z,6.20
2018-12-10T16:48:05.820Z,6.10
2018-12-10T16:50:34.284Z,6.20
2018-12-10T16:53:02.986Z,6.10
2018-12-10T16:55:31.350Z,6.10
2018-12-10T16:57:59.732Z,6.10
2018-12-10T17:00:28.121Z,6.10
2018-12-10T17:02:56.592Z,6.10
2018-12-10T17:05:27.850Z,6.10
2018-12-10T17:07:56.427Z,6.00
2018-12-10T17:10:24.828Z,6.00
2018-12-10T17:12:53.604Z,6.00
2018-12-10T17:15:22.282Z,5.90
2018-12-10T17:17:50.532Z,5.90
2018-12-10T17:20:19.111Z,5.90
2018-12-10T17:22:47.667Z,5.80
2018-12-10T17:25:16.461Z,5.80
2018-12-10T17:27:45.004Z,5.80
2018-12-10T17:30:13.673Z,5.80
2018-12-10T17:32:42.122Z,5.80
2018-12-10T17:35:10.342Z,5.80
2018-12-10T17:37:38.738Z,5.90
2018-12-10T17:40:07.614Z,5.90
2018-12-10T17:42:35.878Z,5.90
2018-12-10T17:45:05.469Z,5.90
2018-12-10T17:47:33.837Z,6.00
2018-12-10T17:50:02.255Z,6.00
2018-12-10T17:52:31.140Z,6.10
2018-12-10T17:54:59.519Z,6.10
2018-12-10T17:57:27.907Z,6.10
2018-12-10T17:59:59.159Z,6.10
2018-12-10T18:02:27.523Z,6.10
2018-12-10T18:04:56.950Z,6.10
2018-12-10T18:07:25.387Z,6.10
2018-12-10T18:09:53.790Z,6.10
2018-12-10T18:12:22.283Z,6.10
2018-12-10T18:14:50.583Z,6.10
2018-12-10T18:17:19.320Z,6.10
2018-12-10T18:19:47.913Z,6.10
2018-12-10T18:22:16.477Z,6.10
2018-12-10T18:24:44.906Z,6.10
2018-12-10T18:27:13.177Z,6.10
2018-12-10T18:29:41.532Z,6.00
2018-12-10T18:32:09.848Z,6.00
2018-12-10T18:34:38.092Z,6.10
2018-12-10T18:37:06.400Z,6.10
2018-12-10T18:39:34.790Z,6.10
2018-12-10T18:42:03.115Z,6.00
2018-12-10T18:44:31.695Z,5.80
2018-12-10T18:47:00.198Z,5.70
2018-12-10T18:49:28.736Z,5.70
2018-12-10T18:51:58.322Z,5.60
2018-12-10T18:54:26.858Z,5.60
2018-12-10T18:56:55.314Z,5.50
2018-12-10T18:59:24.005Z,5.40
2018-12-10T19:01:52.761Z,5.40
2018-12-10T19:04:21.053Z,5.40
2018-12-10T19:06:49.370Z,5.30
2018-12-10T19:09:18.001Z,5.30
2018-12-10T19:11:46.339Z,5.20
2018-12-10T19:14:14.742Z,5.20
2018-12-10T19:16:43.613Z,5.20
2018-12-10T19:19:11.969Z,5.20
2018-12-10T19:21:40.723Z,5.10
2018-12-10T19:24:09.211Z,5.10
2018-12-10T19:26:37.727Z,5.10
2018-12-10T19:29:06.091Z,5.00
2018-12-10T19:31:34.390Z,5.00
2018-12-10T19:34:03.664Z,5.00
2018-12-10T19:36:32.721Z,4.90
2018-12-10T19:39:01.182Z,4.80
2018-12-10T19:41:32.208Z,4.80
2018-12-10T19:44:00.597Z,4.80
2018-12-10T19:46:29.167Z,4.70
2018-12-10T19:48:57.876Z,4.70
2018-12-10T19:51:26.338Z,4.70
2018-12-10T19:53:54.919Z,4.60
2018-12-10T19:56:23.385Z,4.50
2018-12-10T19:58:52.350Z,4.50
2018-12-10T20:01:20.939Z,4.40
2018-12-10T20:03:50.006Z,4.40
2018-12-10T20:06:40.124Z,4.30
2018-12-10T20:09:08.764Z,4.30
2018-12-10T20:11:37.334Z,4.20
2018-12-10T20:14:07.821Z,4.10
2018-12-10T20:16:36.273Z,4.00
2018-12-10T20:19:04.816Z,4.00
2018-12-10T20:21:34.577Z,3.90
2018-12-10T20:24:03.032Z,3.80
2018-12-10T20:26:32.360Z,3.80
2018-12-10T20:29:00.937Z,3.70
2018-12-10T20:31:29.434Z,3.70
2018-12-10T20:33:57.998Z,3.60
2018-12-10T20:36:26.347Z,3.60
2018-12-10T20:38:54.844Z,3.50
2018-12-10T20:41:24.389Z,3.50
2018-12-10T20:43:53.271Z,3.40
2018-12-10T20:46:21.621Z,3.40
2018-12-10T20:48:50.447Z,3.40
2018-12-10T20:51:18.942Z,3.40
2018-12-10T20:53:47.492Z,3.40
2018-12-10T20:56:16.053Z,3.30
2018-12-10T20:58:44.558Z,3.30
2018-12-10T21:01:13.024Z,3.40
2018-12-10T21:03:41.880Z,3.50
2018-12-10T21:06:15.700Z,3.60
2018-12-10T21:08:44.142Z,3.60
2018-12-10T21:11:12.452Z,3.70
2018-12-10T21:13:41.164Z,3.80
2018-12-10T21:16:09.386Z,3.80
2018-12-10T21:18:38.070Z,3.90
2018-12-10T21:21:06.402Z,3.90
2018-12-10T21:23:34.929Z,4.00
2018-12-10T21:26:03.266Z,4.00
2018-12-10T21:28:31.926Z,4.10
2018-12-10T21:31:00.420Z,4.10
2018-12-10T21:33:28.835Z,4.20
2018-12-10T21:35:57.577Z,4.20
2018-12-10T21:38:26.056Z,4.20
2018-12-10T21:40:54.519Z,4.20
2018-12-10T21:43:23.198Z,4.20
2018-12-10T21:45:51.800Z,4.30
2018-12-10T21:48:20.409Z,4.30
2018-12-10T21:50:48.977Z,4.30
2018-12-10T21:53:17.269Z,4.30
2018-12-10T21:55:46.166Z,4.30
2018-12-10T21:58:14.736Z,4.40
2018-12-10T22:00:43.347Z,4.30
2018-12-10T22:03:11.822Z,4.30
2018-12-10T22:05:40.279Z,4.30
2018-12-10T22:08:08.815Z,4.20
2018-12-10T22:10:37.060Z,4.20
2018-12-10T22:13:05.589Z,4.20
2018-12-10T22:15:33.919Z,4.10
2018-12-10T22:18:02.478Z,4.00
2018-12-10T22:20:30.662Z,4.00
2018-12-10T22:22:58.991Z,3.90
2018-12-10T22:25:27.423Z,3.90
2018-12-10T22:27:55.783Z,3.80
2018-12-10T22:30:24.087Z,3.80
2018-12-10T22:32:52.616Z,3.70
2018-12-10T22:35:21.051Z,3.70
2018-12-10T22:37:49.489Z,3.70
2018-12-10T22:40:17.834Z,3.60
2018-12-10T22:42:46.485Z,3.60
2018-12-10T22:45:14.760Z,3.60
2018-12-10T22:47:43.128Z,3.60
2018-12-10T22:50:11.609Z,3.60
2018-12-10T22:52:39.900Z,3.60
2018-12-10T22:55:08.164Z,3.60
2018-12-10T22:57:36.440Z,3.60
2018-12-10T23:00:07.530Z,3.70
2018-12-10T23:02:37.912Z,3.70
2018-12-10T23:05:07.019Z,3.70
2018-12-10T23:07:37.395Z,3.70
2018-12-10T23:10:05.924Z,3.80
2018-12-10T23:12:34.386Z,3.70
2018-12-10T23:15:02.800Z,3.80
2018-12-10T23:17:31.342Z,3.80
2018-12-10T23:19:59.902Z,3.90
2018-12-10T23:22:28.214Z,3.90
2018-12-10T23:24:56.591Z,4.00
2018-12-10T23:27:24.939Z,4.00
2018-12-10T23:29:53.374Z,4.10
2018-12-10T23:32:21.608Z,4.10
2018-12-10T23:34:50.178Z,4.10
2018-12-10T23:37:18.620Z,4.10
2018-12-10T23:39:46.984Z,4.20
2018-12-10T23:42:15.476Z,4.20
2018-12-10T23:44:49.244Z,4.20
2018-12-10T23:47:17.430Z,4.20
2018-12-10T23:49:47.692Z,4.30
2018-12-10T23:52:16.960Z,4.30
2018-12-10T23:54:45.938Z,4.30
2018-12-10T23:57:14.437Z,4.30
2018-12-10T23:59:42.810Z,4.40
